sensor_id;sensor_type;location;lat;lon;timestamp;temperature;humidity
20856;DHT22;63058;49.424;8.420;2023-12-29T00:02:01;12.30;99.90
20856;DHT22;63058;49.424;8.420;2023-12-29T00:04:27;12.30;99.90
20856;DHT22;63058;49.424;8.420;2023-12-29T00:06:52;12.20;99.90
20856;DHT22;63058;49.424;8.420;2023-12-29T00:09:18;12.30;99.90
20856;DHT22;63058;49.424;8.420;2023-12-29T00:11:47;12.20;99.90
20856;DHT22;63058;49.424;8.420;2023-12-29T00:14:13;12.20;99.90
20856;DHT22;63058;49.424;8.420;2023-12-29T00:16:38;12.30;99.90
20856;DHT22;63058;49.424;8.420;2023-12-29T00:19:04;12.30;99.90
20856;DHT22;63058;49.424;8.420;2023-12-29T00:21:30;12.20;99.90
20856;DHT22;63058;49.424;8.420;2023-12-29T00:23:55;12.20;99.90
20856;DHT22;63058;49.424;8.420;2023-12-29T00:26:22;12.30;99.90
20856;DHT22;63058;49.424;8.420;2023-12-29T00:28:47;12.30;99.90
20856;DHT22;63058;49.424;8.420;2023-12-29T00:31:16;12.30;99.90
20856;DHT22;63058;49.424;8.420;2023-12-29T00:33:43;12.30;99.90
20856;DHT22;63058;49.424;8.420;2023-12-29T00:36:13;12.30;99.90
20856;DHT22;63058;49.424;8.420;2023-12-29T00:38:39;12.30;99.90
20856;DHT22;63058;49.424;8.420;2023-12-29T00:41:05;12.30;99.90
20856;DHT22;63058;49.424;8.420;2023-12-29T00:43:30;12.30;99.90
20856;DHT22;63058;49.424;8.420;2023-12-29T00:45:56;12.40;99.90
20856;DHT22;63058;49.424;8.420;2023-12-29T00:48:22;12.40;99.90
20856;DHT22;63058;49.424;8.420;2023-12-29T00:50:47;12.40;99.90
20856;DHT22;63058;49.424;8.420;2023-12-29T00:53:13;12.40;99.90
20856;DHT22;63058;49.424;8.420;2023-12-29T00:55:38;12.40;99.90
20856;DHT22;63058;49.424;8.420;2023-12-29T00:58:04;12.40;99.90
20856;DHT22;63058;49.424;8.420;2023-12-29T01:00:29;12.30;99.90
20856;DHT22;63058;49.424;8.420;2023-12-29T01:02:55;12.40;99.90
20856;DHT22;63058;49.424;8.420;2023-12-29T01:05:20;12.30;99.90
20856;DHT22;63058;49.424;8.420;2023-12-29T01:07:46;12.30;99.90
20856;DHT22;63058;49.424;8.420;2023-12-29T01:10:11;12.30;99.90
20856;DHT22;63058;49.424;8.420;2023-12-29T01:12:37;12.40;99.90
20856;DHT22;63058;49.424;8.420;2023-12-29T01:15:03;12.40;99.90
20856;DHT22;63058;49.424;8.420;2023-12-29T01:17:28;12.40;99.90
20856;DHT22;63058;49.424;8.420;2023-12-29T01:19:54;12.40;99.90
20856;DHT22;63058;49.424;8.420;2023-12-29T01:22:20;12.40;99.90
20856;DHT22;63058;49.424;8.420;2023-12-29T01:24:45;12.40;99.90
20856;DHT22;63058;49.424;8.420;2023-12-29T01:27:11;12.40;99.90
20856;DHT22;63058;49.424;8.420;2023-12-29T01:29:37;12.40;99.90
20856;DHT22;63058;49.424;8.420;2023-12-29T01:32:02;12.30;99.90
20856;DHT22;63058;49.424;8.420;2023-12-29T01:34:29;12.30;99.90
20856;DHT22;63058;49.424;8.420;2023-12-29T01:36:58;12.30;99.90
20856;DHT22;63058;49.424;8.420;2023-12-29T01:39:24;12.30;99.90
20856;DHT22;63058;49.424;8.420;2023-12-29T01:41:50;12.20;99.90
20856;DHT22;63058;49.424;8.420;2023-12-29T01:44:20;12.20;99.90
20856;DHT22;63058;49.424;8.420;2023-12-29T01:46:46;12.20;99.90
20856;DHT22;63058;49.424;8.420;2023-12-29T01:49:16;12.20;99.90
20856;DHT22;63058;49.424;8.420;2023-12-29T01:51:44;12.20;99.90
20856;DHT22;63058;49.424;8.420;2023-12-29T01:54:12;12.20;99.90
20856;DHT22;63058;49.424;8.420;2023-12-29T01:56:38;12.20;99.90
20856;DHT22;63058;49.424;8.420;2023-12-29T01:59:04;12.10;99.90
20856;DHT22;63058;49.424;8.420;2023-12-29T02:01:29;12.00;99.90
20856;DHT22;63058;49.424;8.420;2023-12-29T02:03:56;12.00;99.90
20856;DHT22;63058;49.424;8.420;2023-12-29T02:06:22;12.00;99.90
20856;DHT22;63058;49.424;8.420;2023-12-29T02:08:49;12.00;99.90
20856;DHT22;63058;49.424;8.420;2023-12-29T02:11:17;11.90;99.90
20856;DHT22;63058;49.424;8.420;2023-12-29T02:13:43;11.90;99.90
20856;DHT22;63058;49.424;8.420;2023-12-29T02:16:42;11.90;99.90
20856;DHT22;63058;49.424;8.420;2023-12-29T02:19:41;11.90;99.90
20856;DHT22;63058;49.424;8.420;2023-12-29T02:22:09;11.80;99.90
20856;DHT22;63058;49.424;8.420;2023-12-29T02:24:36;11.80;99.90
20856;DHT22;63058;49.424;8.420;2023-12-29T02:27:25;11.70;99.90
20856;DHT22;63058;49.424;8.420;2023-12-29T02:32:27;11.70;99.90
20856;DHT22;63058;49.424;8.420;2023-12-29T02:34:55;11.60;99.90
20856;DHT22;63058;49.424;8.420;2023-12-29T02:37:22;11.60;99.90
20856;DHT22;63058;49.424;8.420;2023-12-29T02:39:48;11.60;99.90
20856;DHT22;63058;49.424;8.420;2023-12-29T02:42:14;11.60;99.90
20856;DHT22;63058;49.424;8.420;2023-12-29T02:44:40;11.50;99.90
20856;DHT22;63058;49.424;8.420;2023-12-29T02:47:05;11.50;99.90
20856;DHT22;63058;49.424;8.420;2023-12-29T02:49:31;11.50;99.90
20856;DHT22;63058;49.424;8.420;2023-12-29T02:51:56;11.50;99.90
20856;DHT22;63058;49.424;8.420;2023-12-29T02:54:22;11.50;99.90
20856;DHT22;63058;49.424;8.420;2023-12-29T02:56:48;11.50;99.90
20856;DHT22;63058;49.424;8.420;2023-12-29T02:59:13;11.50;99.90
20856;DHT22;63058;49.424;8.420;2023-12-29T03:01:39;11.40;99.90
20856;DHT22;63058;49.424;8.420;2023-12-29T03:04:04;11.40;99.90
20856;DHT22;63058;49.424;8.420;2023-12-29T03:06:30;11.40;99.90
20856;DHT22;63058;49.424;8.420;2023-12-29T03:08:55;11.40;99.90
20856;DHT22;63058;49.424;8.420;2023-12-29T03:11:21;11.40;99.90
20856;DHT22;63058;49.424;8.420;2023-12-29T03:13:46;11.40;99.90
20856;DHT22;63058;49.424;8.420;2023-12-29T03:16:12;11.40;99.90
20856;DHT22;63058;49.424;8.420;2023-12-29T03:18:38;11.30;99.90
20856;DHT22;63058;49.424;8.420;2023-12-29T03:21:05;11.30;99.90
20856;DHT22;63058;49.424;8.420;2023-12-29T03:23:31;11.20;99.90
20856;DHT22;63058;49.424;8.420;2023-12-29T03:25:56;11.20;99.90
20856;DHT22;63058;49.424;8.420;2023-12-29T03:28:22;11.20;99.90
20856;DHT22;63058;49.424;8.420;2023-12-29T03:30:48;11.20;99.90
20856;DHT22;63058;49.424;8.420;2023-12-29T03:33:15;11.20;99.90
20856;DHT22;63058;49.424;8.420;2023-12-29T03:35:40;11.20;99.90
20856;DHT22;63058;49.424;8.420;2023-12-29T03:38:06;11.10;99.90
20856;DHT22;63058;49.424;8.420;2023-12-29T03:40:31;11.10;99.90
20856;DHT22;63058;49.424;8.420;2023-12-29T03:42:57;11.00;99.90
20856;DHT22;63058;49.424;8.420;2023-12-29T03:45:24;11.00;99.90
20856;DHT22;63058;49.424;8.420;2023-12-29T03:47:49;11.00;99.90
20856;DHT22;63058;49.424;8.420;2023-12-29T03:50:15;11.00;99.90
20856;DHT22;63058;49.424;8.420;2023-12-29T03:52:40;11.00;99.90
20856;DHT22;63058;49.424;8.420;2023-12-29T03:55:06;10.90;99.90
20856;DHT22;63058;49.424;8.420;2023-12-29T03:57:32;10.90;99.90
20856;DHT22;63058;49.424;8.420;2023-12-29T03:59:57;10.90;99.90
20856;DHT22;63058;49.424;8.420;2023-12-29T04:02:23;10.90;99.90
20856;DHT22;63058;49.424;8.420;2023-12-29T04:04:49;10.90;99.90
20856;DHT22;63058;49.424;8.420;2023-12-29T04:07:15;10.90;99.90
20856;DHT22;63058;49.424;8.420;2023-12-29T04:09:40;10.90;99.90
20856;DHT22;63058;49.424;8.420;2023-12-29T04:12:06;10.80;99.90
20856;DHT22;63058;49.424;8.420;2023-12-29T04:14:32;10.90;99.90
20856;DHT22;63058;49.424;8.420;2023-12-29T04:16:57;10.90;99.90
20856;DHT22;63058;49.424;8.420;2023-12-29T04:19:24;10.90;99.90
20856;DHT22;63058;49.424;8.420;2023-12-29T04:21:49;10.90;99.90
20856;DHT22;63058;49.424;8.420;2023-12-29T04:24:15;10.90;99.90
20856;DHT22;63058;49.424;8.420;2023-12-29T04:26:41;11.00;99.90
20856;DHT22;63058;49.424;8.420;2023-12-29T04:29:06;11.00;99.90
20856;DHT22;63058;49.424;8.420;2023-12-29T04:31:32;11.00;99.90
20856;DHT22;63058;49.424;8.420;2023-12-29T04:33:57;11.10;99.90
20856;DHT22;63058;49.424;8.420;2023-12-29T04:36:23;11.10;99.90
20856;DHT22;63058;49.424;8.420;2023-12-29T04:38:48;11.10;99.90
20856;DHT22;63058;49.424;8.420;2023-12-29T04:41:14;11.10;99.90
20856;DHT22;63058;49.424;8.420;2023-12-29T04:43:40;11.20;99.90
20856;DHT22;63058;49.424;8.420;2023-12-29T04:46:05;11.20;99.90
20856;DHT22;63058;49.424;8.420;2023-12-29T04:48:31;11.10;99.90
20856;DHT22;63058;49.424;8.420;2023-12-29T04:50:56;11.10;99.90
20856;DHT22;63058;49.424;8.420;2023-12-29T04:53:22;11.10;99.90
20856;DHT22;63058;49.424;8.420;2023-12-29T04:55:47;11.10;99.90
20856;DHT22;63058;49.424;8.420;2023-12-29T04:58:13;11.00;99.90
20856;DHT22;63058;49.424;8.420;2023-12-29T05:00:39;11.00;99.90
20856;DHT22;63058;49.424;8.420;2023-12-29T05:03:04;11.00;99.90
20856;DHT22;63058;49.424;8.420;2023-12-29T05:05:30;11.00;99.90
20856;DHT22;63058;49.424;8.420;2023-12-29T05:07:55;11.00;99.90
20856;DHT22;63058;49.424;8.420;2023-12-29T05:10:21;10.90;99.90
20856;DHT22;63058;49.424;8.420;2023-12-29T05:12:47;10.90;99.90
20856;DHT22;63058;49.424;8.420;2023-12-29T05:15:12;10.90;99.90
20856;DHT22;63058;49.424;8.420;2023-12-29T05:17:38;10.90;99.90
20856;DHT22;63058;49.424;8.420;2023-12-29T05:20:06;10.90;99.90
20856;DHT22;63058;49.424;8.420;2023-12-29T05:22:32;10.90;99.90
20856;DHT22;63058;49.424;8.420;2023-12-29T05:24:57;10.90;99.90
20856;DHT22;63058;49.424;8.420;2023-12-29T05:27:25;10.90;99.90
20856;DHT22;63058;49.424;8.420;2023-12-29T05:29:51;10.90;99.90
20856;DHT22;63058;49.424;8.420;2023-12-29T05:32:17;10.90;99.90
20856;DHT22;63058;49.424;8.420;2023-12-29T05:34:43;10.90;99.90
20856;DHT22;63058;49.424;8.420;2023-12-29T05:37:08;10.90;99.90
20856;DHT22;63058;49.424;8.420;2023-12-29T05:39:34;10.90;99.90
20856;DHT22;63058;49.424;8.420;2023-12-29T05:41:59;10.90;99.90
20856;DHT22;63058;49.424;8.420;2023-12-29T05:44:25;10.90;99.90
20856;DHT22;63058;49.424;8.420;2023-12-29T05:46:52;10.90;99.90
20856;DHT22;63058;49.424;8.420;2023-12-29T05:49:24;10.90;99.90
20856;DHT22;63058;49.424;8.420;2023-12-29T05:51:50;11.00;99.90
20856;DHT22;63058;49.424;8.420;2023-12-29T05:54:16;11.00;99.90
20856;DHT22;63058;49.424;8.420;2023-12-29T05:56:41;11.00;99.90
20856;DHT22;63058;49.424;8.420;2023-12-29T05:59:07;11.20;99.90
20856;DHT22;63058;49.424;8.420;2023-12-29T06:01:33;11.20;99.90
20856;DHT22;63058;49.424;8.420;2023-12-29T06:03:58;11.20;99.90
20856;DHT22;63058;49.424;8.420;2023-12-29T06:06:24;11.20;99.90
20856;DHT22;63058;49.424;8.420;2023-12-29T06:08:49;11.20;99.90
20856;DHT22;63058;49.424;8.420;2023-12-29T06:11:16;11.20;99.90
20856;DHT22;63058;49.424;8.420;2023-12-29T06:13:42;11.20;99.90
20856;DHT22;63058;49.424;8.420;2023-12-29T06:16:08;11.20;99.90
20856;DHT22;63058;49.424;8.420;2023-12-29T06:18:33;11.20;99.90
20856;DHT22;63058;49.424;8.420;2023-12-29T06:21:01;11.30;99.90
20856;DHT22;63058;49.424;8.420;2023-12-29T06:23:28;11.30;99.90
20856;DHT22;63058;49.424;8.420;2023-12-29T06:25:54;11.30;99.90
20856;DHT22;63058;49.424;8.420;2023-12-29T06:28:19;11.30;99.90
20856;DHT22;63058;49.424;8.420;2023-12-29T06:30:45;11.40;99.90
20856;DHT22;63058;49.424;8.420;2023-12-29T06:33:11;11.40;99.90
20856;DHT22;63058;49.424;8.420;2023-12-29T06:35:36;11.40;99.90
20856;DHT22;63058;49.424;8.420;2023-12-29T06:38:04;11.40;99.90
20856;DHT22;63058;49.424;8.420;2023-12-29T06:40:29;11.50;99.90
20856;DHT22;63058;49.424;8.420;2023-12-29T06:42:55;11.50;99.90
20856;DHT22;63058;49.424;8.420;2023-12-29T06:45:21;11.50;99.90
20856;DHT22;63058;49.424;8.420;2023-12-29T06:47:46;11.60;99.90
20856;DHT22;63058;49.424;8.420;2023-12-29T06:50:12;11.70;99.90
20856;DHT22;63058;49.424;8.420;2023-12-29T06:52:38;11.70;99.90
20856;DHT22;63058;49.424;8.420;2023-12-29T06:55:04;11.70;99.90
20856;DHT22;63058;49.424;8.420;2023-12-29T06:57:30;11.70;99.90
20856;DHT22;63058;49.424;8.420;2023-12-29T06:59:56;11.70;99.90
20856;DHT22;63058;49.424;8.420;2023-12-29T07:02:22;11.80;99.90
20856;DHT22;63058;49.424;8.420;2023-12-29T07:04:47;11.80;99.90
20856;DHT22;63058;49.424;8.420;2023-12-29T07:07:13;11.90;99.90
20856;DHT22;63058;49.424;8.420;2023-12-29T07:09:39;11.80;99.90
20856;DHT22;63058;49.424;8.420;2023-12-29T07:12:08;11.90;99.90
20856;DHT22;63058;49.424;8.420;2023-12-29T07:14:34;11.90;99.90
20856;DHT22;63058;49.424;8.420;2023-12-29T07:17:01;11.90;99.90
20856;DHT22;63058;49.424;8.420;2023-12-29T07:19:27;11.90;99.90
20856;DHT22;63058;49.424;8.420;2023-12-29T07:21:59;11.90;99.90
20856;DHT22;63058;49.424;8.420;2023-12-29T07:24:25;12.10;99.90
20856;DHT22;63058;49.424;8.420;2023-12-29T07:26:50;12.00;99.90
20856;DHT22;63058;49.424;8.420;2023-12-29T07:29:16;12.00;99.90
20856;DHT22;63058;49.424;8.420;2023-12-29T07:31:42;12.00;99.90
20856;DHT22;63058;49.424;8.420;2023-12-29T07:34:07;12.00;99.90
20856;DHT22;63058;49.424;8.420;2023-12-29T07:36:33;12.00;99.90
20856;DHT22;63058;49.424;8.420;2023-12-29T07:39:03;12.10;99.90
20856;DHT22;63058;49.424;8.420;2023-12-29T07:41:29;12.00;99.90
20856;DHT22;63058;49.424;8.420;2023-12-29T07:43:55;12.20;99.90
20856;DHT22;63058;49.424;8.420;2023-12-29T07:46:25;12.00;99.90
20856;DHT22;63058;49.424;8.420;2023-12-29T07:48:51;12.20;99.90
20856;DHT22;63058;49.424;8.420;2023-12-29T07:51:18;12.10;99.90
20856;DHT22;63058;49.424;8.420;2023-12-29T07:53:43;12.10;99.90
20856;DHT22;63058;49.424;8.420;2023-12-29T07:56:10;12.20;99.90
20856;DHT22;63058;49.424;8.420;2023-12-29T07:58:36;12.20;99.90
20856;DHT22;63058;49.424;8.420;2023-12-29T08:01:02;12.20;99.90
20856;DHT22;63058;49.424;8.420;2023-12-29T08:03:27;12.30;99.90
20856;DHT22;63058;49.424;8.420;2023-12-29T08:05:53;12.30;99.90
20856;DHT22;63058;49.424;8.420;2023-12-29T08:08:18;12.30;99.90
20856;DHT22;63058;49.424;8.420;2023-12-29T08:10:44;12.30;99.90
20856;DHT22;63058;49.424;8.420;2023-12-29T08:13:10;12.40;99.90
20856;DHT22;63058;49.424;8.420;2023-12-29T08:15:35;12.40;99.90
20856;DHT22;63058;49.424;8.420;2023-12-29T08:18:03;12.40;99.90
20856;DHT22;63058;49.424;8.420;2023-12-29T08:20:28;12.40;99.90
20856;DHT22;63058;49.424;8.420;2023-12-29T08:22:54;12.50;99.90
20856;DHT22;63058;49.424;8.420;2023-12-29T08:25:20;12.50;99.90
20856;DHT22;63058;49.424;8.420;2023-12-29T08:27:46;12.60;99.90
20856;DHT22;63058;49.424;8.420;2023-12-29T08:30:12;12.60;99.90
20856;DHT22;63058;49.424;8.420;2023-12-29T08:32:37;12.70;99.90
20856;DHT22;63058;49.424;8.420;2023-12-29T08:35:03;12.80;99.90
20856;DHT22;63058;49.424;8.420;2023-12-29T08:37:28;12.80;99.90
20856;DHT22;63058;49.424;8.420;2023-12-29T08:39:54;12.90;99.90
20856;DHT22;63058;49.424;8.420;2023-12-29T08:42:21;12.90;99.90
20856;DHT22;63058;49.424;8.420;2023-12-29T08:44:47;13.00;99.90
20856;DHT22;63058;49.424;8.420;2023-12-29T08:47:13;13.00;99.90
20856;DHT22;63058;49.424;8.420;2023-12-29T08:49:38;13.10;99.90
20856;DHT22;63058;49.424;8.420;2023-12-29T08:52:06;13.20;99.90
20856;DHT22;63058;49.424;8.420;2023-12-29T08:54:31;13.20;99.90
20856;DHT22;63058;49.424;8.420;2023-12-29T08:56:57;13.20;99.90
20856;DHT22;63058;49.424;8.420;2023-12-29T08:59:23;13.30;99.90
20856;DHT22;63058;49.424;8.420;2023-12-29T09:01:48;13.30;99.90
20856;DHT22;63058;49.424;8.420;2023-12-29T09:04:20;13.40;99.90
20856;DHT22;63058;49.424;8.420;2023-12-29T09:06:48;13.40;99.90
20856;DHT22;63058;49.424;8.420;2023-12-29T09:09:17;13.40;99.90
20856;DHT22;63058;49.424;8.420;2023-12-29T09:11:50;13.40;99.90
20856;DHT22;63058;49.424;8.420;2023-12-29T09:14:25;13.40;99.90
20856;DHT22;63058;49.424;8.420;2023-12-29T09:16:56;13.40;99.90
20856;DHT22;63058;49.424;8.420;2023-12-29T09:19:25;13.40;99.90
20856;DHT22;63058;49.424;8.420;2023-12-29T09:22:37;13.40;99.90
20856;DHT22;63058;49.424;8.420;2023-12-29T09:25:14;13.40;99.90
20856;DHT22;63058;49.424;8.420;2023-12-29T09:27:52;13.50;99.90
20856;DHT22;63058;49.424;8.420;2023-12-29T09:30:30;13.50;99.90
20856;DHT22;63058;49.424;8.420;2023-12-29T09:33:02;13.50;99.90
20856;DHT22;63058;49.424;8.420;2023-12-29T09:35:32;13.50;99.90
20856;DHT22;63058;49.424;8.420;2023-12-29T09:38:09;13.60;99.90
20856;DHT22;63058;49.424;8.420;2023-12-29T09:40:45;13.50;99.90
20856;DHT22;63058;49.424;8.420;2023-12-29T09:46:17;13.60;99.90
20856;DHT22;63058;49.424;8.420;2023-12-29T09:49:09;13.60;99.90
20856;DHT22;63058;49.424;8.420;2023-12-29T09:51:40;13.70;99.90
20856;DHT22;63058;49.424;8.420;2023-12-29T09:54:29;13.90;99.90
20856;DHT22;63058;49.424;8.420;2023-12-29T09:57:29;13.90;99.90
20856;DHT22;63058;49.424;8.420;2023-12-29T10:00:40;14.10;99.90
20856;DHT22;63058;49.424;8.420;2023-12-29T10:03:17;14.20;99.90
20856;DHT22;63058;49.424;8.420;2023-12-29T10:12:00;14.40;99.90
20856;DHT22;63058;49.424;8.420;2023-12-29T10:17:39;14.40;99.90
20856;DHT22;63058;49.424;8.420;2023-12-29T10:24:03;14.50;98.60
20856;DHT22;63058;49.424;8.420;2023-12-29T10:26:41;14.50;99.30
20856;DHT22;63058;49.424;8.420;2023-12-29T10:29:15;14.60;99.20
20856;DHT22;63058;49.424;8.420;2023-12-29T10:31:51;14.60;99.80
20856;DHT22;63058;49.424;8.420;2023-12-29T10:34:36;14.70;99.00
20856;DHT22;63058;49.424;8.420;2023-12-29T10:37:05;14.80;99.10
20856;DHT22;63058;49.424;8.420;2023-12-29T10:40:02;14.90;99.40
20856;DHT22;63058;49.424;8.420;2023-12-29T10:42:59;14.80;99.10
20856;DHT22;63058;49.424;8.420;2023-12-29T10:46:11;15.00;99.60
20856;DHT22;63058;49.424;8.420;2023-12-29T10:49:06;15.10;98.90
20856;DHT22;63058;49.424;8.420;2023-12-29T10:51:46;15.10;98.70
20856;DHT22;63058;49.424;8.420;2023-12-29T10:57:42;15.20;98.40
20856;DHT22;63058;49.424;8.420;2023-12-29T11:00:29;15.30;99.00
20856;DHT22;63058;49.424;8.420;2023-12-29T11:03:02;15.40;98.60
20856;DHT22;63058;49.424;8.420;2023-12-29T11:08:47;15.30;97.70
20856;DHT22;63058;49.424;8.420;2023-12-29T11:11:28;15.40;97.80
20856;DHT22;63058;49.424;8.420;2023-12-29T11:14:03;15.30;97.20
20856;DHT22;63058;49.424;8.420;2023-12-29T11:16:43;15.30;97.90
20856;DHT22;63058;49.424;8.420;2023-12-29T11:19:21;15.50;96.30
20856;DHT22;63058;49.424;8.420;2023-12-29T11:21:59;15.50;97.70
20856;DHT22;63058;49.424;8.420;2023-12-29T11:24:29;15.70;96.60
20856;DHT22;63058;49.424;8.420;2023-12-29T11:27:07;15.90;98.20
20856;DHT22;63058;49.424;8.420;2023-12-29T11:29:43;16.20;97.10
20856;DHT22;63058;49.424;8.420;2023-12-29T11:39:30;16.70;95.60
20856;DHT22;63058;49.424;8.420;2023-12-29T11:42:17;16.80;95.30
20856;DHT22;63058;49.424;8.420;2023-12-29T11:44:44;16.90;93.80
20856;DHT22;63058;49.424;8.420;2023-12-29T11:47:37;17.00;93.60
20856;DHT22;63058;49.424;8.420;2023-12-29T11:50:04;17.10;93.10
20856;DHT22;63058;49.424;8.420;2023-12-29T11:52:38;17.20;92.40
20856;DHT22;63058;49.424;8.420;2023-12-29T11:55:13;17.20;92.70
20856;DHT22;63058;49.424;8.420;2023-12-29T11:57:43;17.30;93.10
20856;DHT22;63058;49.424;8.420;2023-12-29T12:00:10;17.30;92.70
20856;DHT22;63058;49.424;8.420;2023-12-29T12:02:36;17.40;93.00
20856;DHT22;63058;49.424;8.420;2023-12-29T12:05:02;17.40;93.40
20856;DHT22;63058;49.424;8.420;2023-12-29T12:12:45;17.80;91.30
20856;DHT22;63058;49.424;8.420;2023-12-29T12:17:53;17.70;91.20
20856;DHT22;63058;49.424;8.420;2023-12-29T12:20:18;17.60;90.90
20856;DHT22;63058;49.424;8.420;2023-12-29T12:22:44;17.40;90.40
20856;DHT22;63058;49.424;8.420;2023-12-29T12:25:12;17.20;88.50
20856;DHT22;63058;49.424;8.420;2023-12-29T12:27:38;17.10;89.10
20856;DHT22;63058;49.424;8.420;2023-12-29T12:30:05;16.90;89.70
20856;DHT22;63058;49.424;8.420;2023-12-29T12:32:31;16.80;90.50
20856;DHT22;63058;49.424;8.420;2023-12-29T12:34:57;16.70;90.50
20856;DHT22;63058;49.424;8.420;2023-12-29T12:37:26;16.60;90.90
20856;DHT22;63058;49.424;8.420;2023-12-29T12:39:52;16.50;90.50
20856;DHT22;63058;49.424;8.420;2023-12-29T12:42:19;16.50;91.00
20856;DHT22;63058;49.424;8.420;2023-12-29T12:44:56;16.40;91.20
20856;DHT22;63058;49.424;8.420;2023-12-29T12:47:34;16.30;91.10
20856;DHT22;63058;49.424;8.420;2023-12-29T12:50:01;16.30;91.30
20856;DHT22;63058;49.424;8.420;2023-12-29T12:52:32;16.30;91.90
20856;DHT22;63058;49.424;8.420;2023-12-29T12:54:57;16.20;91.70
20856;DHT22;63058;49.424;8.420;2023-12-29T12:57:23;16.20;92.10
20856;DHT22;63058;49.424;8.420;2023-12-29T12:59:50;16.20;92.00
20856;DHT22;63058;49.424;8.420;2023-12-29T13:02:17;16.10;92.10
20856;DHT22;63058;49.424;8.420;2023-12-29T13:04:43;16.20;92.00
20856;DHT22;63058;49.424;8.420;2023-12-29T13:07:09;16.10;92.40
20856;DHT22;63058;49.424;8.420;2023-12-29T13:09:37;16.20;92.40
20856;DHT22;63058;49.424;8.420;2023-12-29T13:12:13;16.20;92.30
20856;DHT22;63058;49.424;8.420;2023-12-29T13:14:42;16.10;91.60
20856;DHT22;63058;49.424;8.420;2023-12-29T13:17:09;16.10;92.30
20856;DHT22;63058;49.424;8.420;2023-12-29T13:19:36;16.10;92.50
20856;DHT22;63058;49.424;8.420;2023-12-29T13:22:06;16.10;92.80
20856;DHT22;63058;49.424;8.420;2023-12-29T13:24:33;16.10;92.80
20856;DHT22;63058;49.424;8.420;2023-12-29T13:27:05;16.10;92.90
20856;DHT22;63058;49.424;8.420;2023-12-29T13:29:31;16.00;92.70
20856;DHT22;63058;49.424;8.420;2023-12-29T13:32:10;16.00;92.70
20856;DHT22;63058;49.424;8.420;2023-12-29T13:35:03;16.00;92.90
20856;DHT22;63058;49.424;8.420;2023-12-29T13:40:27;16.00;93.30
20856;DHT22;63058;49.424;8.420;2023-12-29T13:43:00;16.10;93.30
20856;DHT22;63058;49.424;8.420;2023-12-29T13:45:27;16.10;92.60
20856;DHT22;63058;49.424;8.420;2023-12-29T13:47:53;16.10;92.50
20856;DHT22;63058;49.424;8.420;2023-12-29T13:50:20;16.00;92.30
20856;DHT22;63058;49.424;8.420;2023-12-29T13:52:45;15.90;91.80
20856;DHT22;63058;49.424;8.420;2023-12-29T13:55:11;15.90;92.40
20856;DHT22;63058;49.424;8.420;2023-12-29T13:57:36;15.90;92.30
20856;DHT22;63058;49.424;8.420;2023-12-29T14:00:17;15.80;92.20
20856;DHT22;63058;49.424;8.420;2023-12-29T14:02:48;15.80;92.40
20856;DHT22;63058;49.424;8.420;2023-12-29T14:05:32;15.80;92.30
20856;DHT22;63058;49.424;8.420;2023-12-29T14:08:22;15.70;92.10
20856;DHT22;63058;49.424;8.420;2023-12-29T14:10:48;15.70;91.80
20856;DHT22;63058;49.424;8.420;2023-12-29T14:13:15;15.70;92.40
20856;DHT22;63058;49.424;8.420;2023-12-29T14:15:42;15.70;92.20
20856;DHT22;63058;49.424;8.420;2023-12-29T14:20:49;15.80;92.20
20856;DHT22;63058;49.424;8.420;2023-12-29T14:23:17;15.70;92.40
20856;DHT22;63058;49.424;8.420;2023-12-29T14:25:43;15.70;92.30
20856;DHT22;63058;49.424;8.420;2023-12-29T14:30:42;15.70;91.80
20856;DHT22;63058;49.424;8.420;2023-12-29T14:33:08;15.70;92.40
20856;DHT22;63058;49.424;8.420;2023-12-29T14:35:34;15.70;92.60
20856;DHT22;63058;49.424;8.420;2023-12-29T14:38:00;15.70;92.40
20856;DHT22;63058;49.424;8.420;2023-12-29T14:40:25;15.70;92.30
20856;DHT22;63058;49.424;8.420;2023-12-29T14:42:51;15.60;92.30
20856;DHT22;63058;49.424;8.420;2023-12-29T14:45:16;15.60;92.40
20856;DHT22;63058;49.424;8.420;2023-12-29T14:47:42;15.50;92.60
20856;DHT22;63058;49.424;8.420;2023-12-29T14:50:08;15.50;92.60
20856;DHT22;63058;49.424;8.420;2023-12-29T14:52:34;15.50;92.80
20856;DHT22;63058;49.424;8.420;2023-12-29T14:54:59;15.40;92.60
20856;DHT22;63058;49.424;8.420;2023-12-29T14:57:25;15.40;92.40
20856;DHT22;63058;49.424;8.420;2023-12-29T14:59:50;15.30;92.20
20856;DHT22;63058;49.424;8.420;2023-12-29T15:02:16;15.20;92.30
20856;DHT22;63058;49.424;8.420;2023-12-29T15:04:41;15.10;92.40
20856;DHT22;63058;49.424;8.420;2023-12-29T15:07:07;15.10;92.40
20856;DHT22;63058;49.424;8.420;2023-12-29T15:09:32;15.00;92.30
20856;DHT22;63058;49.424;8.420;2023-12-29T15:12:01;14.90;92.30
20856;DHT22;63058;49.424;8.420;2023-12-29T15:14:27;14.80;92.30
20856;DHT22;63058;49.424;8.420;2023-12-29T15:16:53;14.70;92.30
20856;DHT22;63058;49.424;8.420;2023-12-29T15:19:19;14.70;92.40
20856;DHT22;63058;49.424;8.420;2023-12-29T15:21:44;14.50;92.50
20856;DHT22;63058;49.424;8.420;2023-12-29T15:24:10;14.50;92.50
20856;DHT22;63058;49.424;8.420;2023-12-29T15:26:35;14.40;92.60
20856;DHT22;63058;49.424;8.420;2023-12-29T15:29:01;14.30;92.60
20856;DHT22;63058;49.424;8.420;2023-12-29T15:31:28;14.20;92.70
20856;DHT22;63058;49.424;8.420;2023-12-29T15:33:53;14.20;92.80
20856;DHT22;63058;49.424;8.420;2023-12-29T15:36:19;14.10;92.80
20856;DHT22;63058;49.424;8.420;2023-12-29T15:38:51;14.00;92.90
20856;DHT22;63058;49.424;8.420;2023-12-29T15:41:17;14.00;93.30
20856;DHT22;63058;49.424;8.420;2023-12-29T15:43:43;13.90;93.10
20856;DHT22;63058;49.424;8.420;2023-12-29T15:46:13;13.90;93.30
20856;DHT22;63058;49.424;8.420;2023-12-29T15:48:40;13.90;93.30
20856;DHT22;63058;49.424;8.420;2023-12-29T15:51:08;13.90;93.40
20856;DHT22;63058;49.424;8.420;2023-12-29T15:53:34;13.80;93.40
20856;DHT22;63058;49.424;8.420;2023-12-29T15:56:00;13.80;93.50
20856;DHT22;63058;49.424;8.420;2023-12-29T15:58:28;13.80;93.60
20856;DHT22;63058;49.424;8.420;2023-12-29T16:00:54;13.70;93.50
20856;DHT22;63058;49.424;8.420;2023-12-29T16:03:19;13.70;93.60
20856;DHT22;63058;49.424;8.420;2023-12-29T16:05:45;13.70;93.60
20856;DHT22;63058;49.424;8.420;2023-12-29T16:08:11;13.70;93.70
20856;DHT22;63058;49.424;8.420;2023-12-29T16:10:37;13.70;93.70
20856;DHT22;63058;49.424;8.420;2023-12-29T16:13:03;13.70;93.60
20856;DHT22;63058;49.424;8.420;2023-12-29T16:15:28;13.70;93.70
20856;DHT22;63058;49.424;8.420;2023-12-29T16:17:54;13.60;93.70
20856;DHT22;63058;49.424;8.420;2023-12-29T16:20:20;13.60;93.70
20856;DHT22;63058;49.424;8.420;2023-12-29T16:22:45;13.60;93.80
20856;DHT22;63058;49.424;8.420;2023-12-29T16:25:11;13.60;93.90
20856;DHT22;63058;49.424;8.420;2023-12-29T16:27:36;13.50;93.80